ADDS METAR Data INFO
IDs: Format: Raw Decoded Include TAF

Data at: 1950 UTC 18 Feb 2018

KMBS 181853Z 19010KT 10SM CLR 03/M04 A3025 RMK AO2 SLP250 T00281044
KMBS 181753Z 20010KT 10SM CLR 02/M05 A3026 RMK AO2 SLP256 T00221050 10022 21017 56010
KMBS 181723Z 19010KT 10SM SCT028 02/M04 A3026 RMK AO2 T00221044
KMBS 181653Z 21008KT 10SM BKN025 02/M05 A3027 RMK AO2 SLP259 T00171050
KMBS 181553Z 20007KT 10SM OVC027 00/M06 A3027 RMK AO2 SLP257 T00001056
KMBS 181515Z 22010KT 10SM OVC028 00/M05 A3028 RMK AO2 T00001050
KMBS 181453Z 22009KT 10SM OVC030 M01/M04 A3029 RMK AO2 SLP266 T10061044 53019
KMBS 181353Z 20007KT 10SM OVC031 M01/M05 A3027 RMK AO2 SLP260 T10111050
KMBS 181253Z 21007KT 10SM OVC032 M02/M06 A3025 RMK AO2 SLP251 T10171056
KMBS 181153Z 21007KT 10SM OVC035 M01/M06 A3023 RMK AO2 SLP246 T10111056 11006 21011 51036
KMBS 181053Z AUTO 24007KT 10SM OVC033 M01/M06 A3022 RMK AO2 SLP241 T10111056
KMBS 180953Z AUTO 24007KT 10SM OVC032 M01/M06 A3017 RMK AO2 SLP226 T10111056
KMBS 180935Z AUTO 25008KT 10SM OVC030 M01/M06 A3016 RMK AO2 T10111056
KMBS 180853Z AUTO 31012KT 10SM OVC028 M01/M06 A3013 RMK AO2 SLP210 T10111061 53037
KMBS 180753Z AUTO 28012KT 10SM OVC025 M01/M05 A3009 RMK AO2 SLP196 T10061050
KMBS 180653Z AUTO 26009KT 7SM OVC021 M01/M03 A3005 RMK AO2 SLP183 T10111033
KMBS 180553Z AUTO 24009KT 8SM OVC015 M02/M04 A3002 RMK AO2 SLP172 60000 T10171039 10000 21022 53012
KMBS 180526Z AUTO 23010KT 9SM SCT019 BKN024 OVC037 M02/M04 A3001 RMK AO2 T10171044
KMBS 180453Z AUTO 23010KT 10SM OVC035 M02/M04 A2999 RMK AO2 SLP163 T10171044 400001067
KMBS 180353Z 23010KT 10SM BKN034 M02/M04 A2998 RMK AO2 SNE0258 SLP161 P0000 T10171044
KMBS 180253Z 23007KT 4SM -SN BR FEW009 BKN048 OVC085 M02/M03 A2998 RMK AO2 SNE32B37 SLP161 P0000 60000 T10171033 51011
KMBS 180233Z 23008KT 4SM BR FEW007 SCT014 OVC048 M02/M03 A2997 RMK AO2 SNE32 P0000 T10171033
KMBS 180214Z 24007KT 2 1/2SM -SN BR SCT007 SCT011 OVC034 M02/M03 A2998 RMK AO2 P0000 T10171033
KMBS 180207Z 23007KT 2SM -SN BR SCT009 SCT012 OVC029 M02/M03 A2998 RMK AO2 P0000 T10171033
KMBS 180153Z 24010KT 1 1/2SM -SN BR SCT008 BKN012 OVC019 M02/M03 A2997 RMK AO2 SLP159 P0000 T10171033
KMBS 180148Z 24008KT 1 1/4SM -SN BR SCT008 BKN012 OVC019 M02/M03 A2997 RMK AO2 P0000
KMBS 180053Z 21008KT 1 1/2SM -SN OVC024 M01/M04 A2996 RMK AO2 SNB29 SLP156 P0000 T10111044
KMBS 180048Z 22012KT 1 3/4SM -SN OVC028 M01/M04 A2996 RMK AO2 SNB29 P0000
KMBS 180043Z 22012KT 2SM -SN OVC030 M01/M05 A2996 RMK AO2 SNB29 P0000 T10111050
KMBS 172353Z 21003KT 10SM OVC050 M01/M07 A2995 RMK AO2 SNE09 SLP150 P0000 60000 T10111067 10000 21011 50002
KMBS 172323Z 24004KT 10SM BKN049 OVC070 M01/M07 A2993 RMK AO2 SNE09 P0000 T10111072
KMBS 172253Z 25012KT 3SM -SN OVC032 M01/M07 A2995 RMK AO2 SFC VIS 3 SNB25E34B50 SLP151 P0000 T10111067
KMBS 172153Z 23011KT 10SM BKN065 OVC080 M01/M09 A2996 RMK AO2 SLP155 T10061089
KMBS 172053Z 23010KT 10SM OVC085 M01/M11 A2994 RMK AO2 SLP148 T10061111 56027
KMBS 171953Z 22014KT 10SM CLR M01/M12 A2996 RMK AO2 SLP155 T10061117
KMBS 171853Z 23015KT 10SM CLR M01/M13 A2998 RMK AO2 SLP163 T10061133
KMBS 171753Z 24011KT 10SM CLR M01/M11 A3002 RMK AO2 SLP176 T10111111 11011 21061 58028
KMBS 171653Z 22013KT 10SM CLR M02/M12 A3005 RMK AO2 SLP186 T10221122
KMBS 171553Z 22012KT 9SM CLR M03/M08 A3008 RMK AO2 SLP197 T10331078
KMBS 171453Z 21012KT 7SM CLR M04/M07 A3011 RMK AO2 SLP205 T10391072 58010
KMBS 171353Z 20008KT 10SM SCT023 M05/M08 A3013 RMK AO2 SLP212 T10501083
KMBS 171332Z 18010KT 10SM BKN024 M05/M08 A3015 RMK AO2 T10501083
KMBS 171321Z 19008KT 10SM SCT026 M06/M09 A3015 RMK AO2 T10561089
KMBS 171305Z 20008KT 10SM BKN026 M05/M09 A3015 RMK AO2 T10501089
KMBS 171253Z 19007KT 10SM SCT028 M06/M09 A3014 RMK AO2 SLP216 T10561089
KMBS 171215Z 18006KT 10SM BKN029 M06/M09 A3014 RMK AO2 T10561089
KMBS 171153Z 18006KT 10SM BKN030 M06/M09 A3014 RMK AO2 SLP218 T10611089 11050 21067 58014
KMBS 171138Z 18004KT 10SM BKN030 M06/M09 A3015 RMK AO2 T10611089
KMBS 171106Z 17006KT 10SM BKN029 M06/M09 A3015 RMK AO2 T10611094
KMBS 171053Z AUTO 18006KT 10SM SCT029 M06/M09 A3016 RMK AO2 SLP223 T10611094
KMBS 170953Z AUTO 18007KT 10SM CLR M07/M09 A3018 RMK AO2 SLP230 T10671094
KMBS 170853Z AUTO 19009KT 10SM CLR M06/M09 A3019 RMK AO2 SLP231 T10611094 58014
KMBS 170753Z AUTO 19008KT 10SM CLR M06/M09 A3020 RMK AO2 SLP237 T10611094